sensor_id;sensor_type;location;lat;lon;timestamp;P1;durP1;ratioP1;P2;durP2;ratioP2
64351;SDS011;50680;52.626;-8.668;2022-09-24T00:01:33;7.90;;;2.03;;
64351;SDS011;50680;52.626;-8.668;2022-09-24T00:04:03;8.88;;;1.92;;
64351;SDS011;50680;52.626;-8.668;2022-09-24T00:06:42;10.23;;;2.03;;
64351;SDS011;50680;52.626;-8.668;2022-09-24T00:09:11;7.03;;;1.70;;
64351;SDS011;50680;52.626;-8.668;2022-09-24T00:11:40;12.40;;;1.77;;
64351;SDS011;50680;52.626;-8.668;2022-09-24T00:14:09;10.15;;;1.63;;
64351;SDS011;50680;52.626;-8.668;2022-09-24T00:16:36;4.40;;;1.70;;
64351;SDS011;50680;52.626;-8.668;2022-09-24T00:19:05;7.05;;;1.77;;
64351;SDS011;50680;52.626;-8.668;2022-09-24T00:21:33;14.57;;;2.20;;
64351;SDS011;50680;52.626;-8.668;2022-09-24T00:24:02;5.88;;;1.48;;
64351;SDS011;50680;52.626;-8.668;2022-09-24T00:26:31;4.00;;;1.42;;
64351;SDS011;50680;52.626;-8.668;2022-09-24T00:29:21;8.05;;;2.40;;
64351;SDS011;50680;52.626;-8.668;2022-09-24T00:31:50;10.07;;;2.05;;
64351;SDS011;50680;52.626;-8.668;2022-09-24T00:34:18;10.95;;;1.40;;
64351;SDS011;50680;52.626;-8.668;2022-09-24T00:36:46;7.50;;;1.63;;
64351;SDS011;50680;52.626;-8.668;2022-09-24T00:39:14;4.82;;;1.60;;
64351;SDS011;50680;52.626;-8.668;2022-09-24T00:41:41;6.53;;;1.63;;
64351;SDS011;50680;52.626;-8.668;2022-09-24T00:52:51;9.38;;;1.73;;
64351;SDS011;50680;52.626;-8.668;2022-09-24T00:55:21;10.13;;;1.95;;
64351;SDS011;50680;52.626;-8.668;2022-09-24T00:57:51;12.63;;;1.88;;
64351;SDS011;50680;52.626;-8.668;2022-09-24T01:00:24;7.35;;;1.98;;
64351;SDS011;50680;52.626;-8.668;2022-09-24T01:03:06;9.35;;;2.17;;
64351;SDS011;50680;52.626;-8.668;2022-09-24T01:05:36;12.82;;;2.55;;
64351;SDS011;50680;52.626;-8.668;2022-09-24T01:08:14;13.10;;;2.50;;
64351;SDS011;50680;52.626;-8.668;2022-09-24T01:30:41;10.63;;;1.80;;
64351;SDS011;50680;52.626;-8.668;2022-09-24T01:33:10;12.13;;;1.83;;
64351;SDS011;50680;52.626;-8.668;2022-09-24T01:35:44;9.75;;;1.40;;
64351;SDS011;50680;52.626;-8.668;2022-09-24T01:38:17;10.75;;;1.27;;
64351;SDS011;50680;52.626;-8.668;2022-09-24T01:40:48;11.20;;;1.30;;
64351;SDS011;50680;52.626;-8.668;2022-09-24T01:43:19;8.15;;;1.38;;
64351;SDS011;50680;52.626;-8.668;2022-09-24T01:45:48;11.70;;;1.63;;
64351;SDS011;50680;52.626;-8.668;2022-09-24T01:48:15;6.60;;;1.42;;
64351;SDS011;50680;52.626;-8.668;2022-09-24T01:53:36;6.47;;;1.50;;
64351;SDS011;50680;52.626;-8.668;2022-09-24T01:56:16;7.25;;;1.13;;
64351;SDS011;50680;52.626;-8.668;2022-09-24T01:58:52;9.90;;;1.35;;
64351;SDS011;50680;52.626;-8.668;2022-09-24T02:01:45;10.18;;;1.48;;
64351;SDS011;50680;52.626;-8.668;2022-09-24T02:04:19;8.98;;;1.55;;
64351;SDS011;50680;52.626;-8.668;2022-09-24T02:06:51;10.35;;;1.92;;
64351;SDS011;50680;52.626;-8.668;2022-09-24T02:09:33;10.65;;;1.60;;
64351;SDS011;50680;52.626;-8.668;2022-09-24T02:12:06;15.00;;;1.45;;
64351;SDS011;50680;52.626;-8.668;2022-09-24T02:14:44;13.02;;;1.52;;
64351;SDS011;50680;52.626;-8.668;2022-09-24T02:17:15;7.55;;;1.45;;
64351;SDS011;50680;52.626;-8.668;2022-09-24T02:19:43;5.13;;;1.13;;
64351;SDS011;50680;52.626;-8.668;2022-09-24T02:22:12;12.68;;;1.58;;
64351;SDS011;50680;52.626;-8.668;2022-09-24T02:24:49;10.07;;;1.40;;
64351;SDS011;50680;52.626;-8.668;2022-09-24T02:27:19;10.25;;;1.15;;
64351;SDS011;50680;52.626;-8.668;2022-09-24T02:29:47;13.90;;;1.38;;
64351;SDS011;50680;52.626;-8.668;2022-09-24T02:32:15;8.98;;;1.60;;
64351;SDS011;50680;52.626;-8.668;2022-09-24T02:34:46;11.73;;;1.38;;
64351;SDS011;50680;52.626;-8.668;2022-09-24T02:37:17;11.10;;;1.27;;
64351;SDS011;50680;52.626;-8.668;2022-09-24T02:39:46;23.95;;;3.67;;
64351;SDS011;50680;52.626;-8.668;2022-09-24T02:42:13;4.78;;;1.30;;
64351;SDS011;50680;52.626;-8.668;2022-09-24T02:44:41;12.30;;;1.67;;
64351;SDS011;50680;52.626;-8.668;2022-09-24T02:47:08;6.82;;;1.35;;
64351;SDS011;50680;52.626;-8.668;2022-09-24T02:49:35;6.82;;;2.00;;
64351;SDS011;50680;52.626;-8.668;2022-09-24T02:52:02;7.68;;;1.27;;
64351;SDS011;50680;52.626;-8.668;2022-09-24T02:54:30;8.85;;;1.10;;
64351;SDS011;50680;52.626;-8.668;2022-09-24T02:56:57;4.25;;;0.90;;
64351;SDS011;50680;52.626;-8.668;2022-09-24T02:59:24;4.72;;;0.88;;
64351;SDS011;50680;52.626;-8.668;2022-09-24T03:01:51;12.02;;;1.20;;
64351;SDS011;50680;52.626;-8.668;2022-09-24T03:04:18;6.43;;;1.00;;
64351;SDS011;50680;52.626;-8.668;2022-09-24T03:06:45;6.13;;;1.00;;
64351;SDS011;50680;52.626;-8.668;2022-09-24T03:09:13;5.15;;;1.23;;
64351;SDS011;50680;52.626;-8.668;2022-09-24T03:11:40;2.45;;;0.85;;
64351;SDS011;50680;52.626;-8.668;2022-09-24T03:14:07;6.00;;;0.85;;
64351;SDS011;50680;52.626;-8.668;2022-09-24T03:16:34;4.45;;;0.90;;
64351;SDS011;50680;52.626;-8.668;2022-09-24T03:19:01;27.33;;;2.47;;
64351;SDS011;50680;52.626;-8.668;2022-09-24T03:21:29;2.38;;;0.60;;
64351;SDS011;50680;52.626;-8.668;2022-09-24T03:23:56;5.28;;;0.68;;
64351;SDS011;50680;52.626;-8.668;2022-09-24T03:26:23;3.05;;;0.73;;
64351;SDS011;50680;52.626;-8.668;2022-09-24T03:28:50;11.20;;;0.93;;
64351;SDS011;50680;52.626;-8.668;2022-09-24T03:31:17;4.35;;;0.88;;
64351;SDS011;50680;52.626;-8.668;2022-09-24T03:33:45;4.70;;;1.13;;
64351;SDS011;50680;52.626;-8.668;2022-09-24T03:36:15;6.47;;;1.80;;
64351;SDS011;50680;52.626;-8.668;2022-09-24T03:38:46;5.72;;;1.25;;
64351;SDS011;50680;52.626;-8.668;2022-09-24T03:41:14;6.72;;;1.23;;
64351;SDS011;50680;52.626;-8.668;2022-09-24T03:43:42;5.88;;;1.30;;
64351;SDS011;50680;52.626;-8.668;2022-09-24T03:46:09;7.55;;;1.23;;
64351;SDS011;50680;52.626;-8.668;2022-09-24T03:48:38;4.50;;;1.02;;
64351;SDS011;50680;52.626;-8.668;2022-09-24T03:51:07;6.95;;;1.25;;
64351;SDS011;50680;52.626;-8.668;2022-09-24T03:53:38;5.47;;;1.30;;
64351;SDS011;50680;52.626;-8.668;2022-09-24T03:56:06;6.10;;;1.10;;
64351;SDS011;50680;52.626;-8.668;2022-09-24T03:58:33;2.35;;;1.35;;
64351;SDS011;50680;52.626;-8.668;2022-09-24T04:01:07;14.00;;;2.07;;
64351;SDS011;50680;52.626;-8.668;2022-09-24T04:03:37;7.13;;;1.27;;
64351;SDS011;50680;52.626;-8.668;2022-09-24T04:06:04;5.05;;;1.17;;
64351;SDS011;50680;52.626;-8.668;2022-09-24T04:08:32;7.40;;;1.67;;
64351;SDS011;50680;52.626;-8.668;2022-09-24T04:10:59;7.90;;;1.67;;
64351;SDS011;50680;52.626;-8.668;2022-09-24T04:13:26;7.70;;;1.40;;
64351;SDS011;50680;52.626;-8.668;2022-09-24T04:15:53;16.15;;;2.33;;
64351;SDS011;50680;52.626;-8.668;2022-09-24T04:18:20;13.63;;;2.10;;
64351;SDS011;50680;52.626;-8.668;2022-09-24T04:20:48;12.55;;;2.33;;
64351;SDS011;50680;52.626;-8.668;2022-09-24T04:23:15;18.27;;;2.17;;
64351;SDS011;50680;52.626;-8.668;2022-09-24T04:25:42;8.57;;;2.13;;
64351;SDS011;50680;52.626;-8.668;2022-09-24T04:28:09;7.95;;;2.30;;
64351;SDS011;50680;52.626;-8.668;2022-09-24T04:30:37;16.92;;;2.40;;
64351;SDS011;50680;52.626;-8.668;2022-09-24T04:33:05;11.27;;;2.22;;
64351;SDS011;50680;52.626;-8.668;2022-09-24T04:35:33;12.45;;;2.25;;
64351;SDS011;50680;52.626;-8.668;2022-09-24T04:38:03;22.30;;;2.85;;
64351;SDS011;50680;52.626;-8.668;2022-09-24T04:40:31;14.32;;;3.40;;
64351;SDS011;50680;52.626;-8.668;2022-09-24T04:42:58;10.55;;;2.20;;
64351;SDS011;50680;52.626;-8.668;2022-09-24T04:45:25;8.55;;;1.83;;
64351;SDS011;50680;52.626;-8.668;2022-09-24T04:47:53;9.05;;;2.03;;
64351;SDS011;50680;52.626;-8.668;2022-09-24T04:50:24;17.67;;;2.47;;
64351;SDS011;50680;52.626;-8.668;2022-09-24T04:52:53;13.43;;;1.95;;
64351;SDS011;50680;52.626;-8.668;2022-09-24T04:55:21;9.05;;;2.08;;
64351;SDS011;50680;52.626;-8.668;2022-09-24T04:57:49;11.00;;;1.73;;
64351;SDS011;50680;52.626;-8.668;2022-09-24T05:00:18;14.57;;;3.22;;
64351;SDS011;50680;52.626;-8.668;2022-09-24T05:02:46;12.98;;;2.20;;
64351;SDS011;50680;52.626;-8.668;2022-09-24T05:05:13;8.55;;;1.65;;
64351;SDS011;50680;52.626;-8.668;2022-09-24T05:07:40;8.20;;;1.88;;
64351;SDS011;50680;52.626;-8.668;2022-09-24T05:10:09;7.65;;;1.98;;
64351;SDS011;50680;52.626;-8.668;2022-09-24T05:12:38;8.80;;;1.67;;
64351;SDS011;50680;52.626;-8.668;2022-09-24T05:15:06;11.13;;;2.60;;
64351;SDS011;50680;52.626;-8.668;2022-09-24T05:17:36;9.73;;;1.83;;
64351;SDS011;50680;52.626;-8.668;2022-09-24T05:20:04;7.90;;;2.33;;
64351;SDS011;50680;52.626;-8.668;2022-09-24T05:22:32;6.22;;;2.17;;
64351;SDS011;50680;52.626;-8.668;2022-09-24T05:24:59;10.23;;;2.35;;
64351;SDS011;50680;52.626;-8.668;2022-09-24T05:27:26;8.60;;;2.00;;
64351;SDS011;50680;52.626;-8.668;2022-09-24T05:29:53;14.27;;;2.97;;
64351;SDS011;50680;52.626;-8.668;2022-09-24T05:32:20;13.27;;;2.70;;
64351;SDS011;50680;52.626;-8.668;2022-09-24T05:34:47;11.60;;;2.83;;
64351;SDS011;50680;52.626;-8.668;2022-09-24T05:37:16;8.52;;;2.42;;
64351;SDS011;50680;52.626;-8.668;2022-09-24T05:39:43;7.57;;;2.53;;
64351;SDS011;50680;52.626;-8.668;2022-09-24T05:42:11;11.38;;;2.35;;
64351;SDS011;50680;52.626;-8.668;2022-09-24T05:44:41;10.45;;;2.40;;
64351;SDS011;50680;52.626;-8.668;2022-09-24T05:47:17;6.78;;;1.80;;
64351;SDS011;50680;52.626;-8.668;2022-09-24T05:49:44;14.02;;;2.05;;
64351;SDS011;50680;52.626;-8.668;2022-09-24T05:52:11;5.93;;;1.77;;
64351;SDS011;50680;52.626;-8.668;2022-09-24T05:54:38;7.50;;;2.05;;
64351;SDS011;50680;52.626;-8.668;2022-09-24T05:57:05;6.00;;;1.95;;
64351;SDS011;50680;52.626;-8.668;2022-09-24T05:59:32;12.52;;;2.30;;
64351;SDS011;50680;52.626;-8.668;2022-09-24T06:01:59;15.05;;;3.17;;
64351;SDS011;50680;52.626;-8.668;2022-09-24T06:04:26;7.90;;;2.67;;
64351;SDS011;50680;52.626;-8.668;2022-09-24T06:06:53;13.88;;;3.10;;
64351;SDS011;50680;52.626;-8.668;2022-09-24T06:09:20;12.18;;;3.05;;
64351;SDS011;50680;52.626;-8.668;2022-09-24T06:11:47;5.93;;;2.50;;
64351;SDS011;50680;52.626;-8.668;2022-09-24T06:14:16;13.98;;;2.85;;
64351;SDS011;50680;52.626;-8.668;2022-09-24T06:16:43;13.23;;;3.40;;
64351;SDS011;50680;52.626;-8.668;2022-09-24T06:19:10;20.75;;;3.00;;
64351;SDS011;50680;52.626;-8.668;2022-09-24T06:21:37;19.77;;;3.42;;
64351;SDS011;50680;52.626;-8.668;2022-09-24T06:24:04;11.13;;;3.13;;
64351;SDS011;50680;52.626;-8.668;2022-09-24T06:26:31;9.90;;;2.90;;
64351;SDS011;50680;52.626;-8.668;2022-09-24T06:28:58;17.83;;;3.72;;
64351;SDS011;50680;52.626;-8.668;2022-09-24T06:31:38;15.75;;;3.50;;
64351;SDS011;50680;52.626;-8.668;2022-09-24T06:34:05;10.73;;;3.00;;
64351;SDS011;50680;52.626;-8.668;2022-09-24T06:36:32;16.80;;;3.38;;
64351;SDS011;50680;52.626;-8.668;2022-09-24T06:38:59;13.77;;;3.40;;
64351;SDS011;50680;52.626;-8.668;2022-09-24T06:41:26;13.52;;;4.35;;
64351;SDS011;50680;52.626;-8.668;2022-09-24T06:43:53;13.80;;;3.90;;
64351;SDS011;50680;52.626;-8.668;2022-09-24T06:46:20;14.10;;;3.33;;
64351;SDS011;50680;52.626;-8.668;2022-09-24T06:48:51;16.33;;;4.28;;
64351;SDS011;50680;52.626;-8.668;2022-09-24T06:51:20;14.10;;;3.63;;
64351;SDS011;50680;52.626;-8.668;2022-09-24T06:53:50;13.75;;;3.30;;
64351;SDS011;50680;52.626;-8.668;2022-09-24T06:56:18;18.83;;;4.50;;
64351;SDS011;50680;52.626;-8.668;2022-09-24T06:58:44;15.57;;;4.00;;
64351;SDS011;50680;52.626;-8.668;2022-09-24T07:01:12;8.15;;;3.08;;
64351;SDS011;50680;52.626;-8.668;2022-09-24T07:03:38;10.90;;;3.15;;
64351;SDS011;50680;52.626;-8.668;2022-09-24T07:06:06;12.95;;;3.30;;
64351;SDS011;50680;52.626;-8.668;2022-09-24T07:08:33;13.68;;;2.80;;
64351;SDS011;50680;52.626;-8.668;2022-09-24T07:11:00;9.93;;;2.05;;
64351;SDS011;50680;52.626;-8.668;2022-09-24T07:13:27;17.02;;;2.72;;
64351;SDS011;50680;52.626;-8.668;2022-09-24T07:15:54;8.63;;;2.50;;
64351;SDS011;50680;52.626;-8.668;2022-09-24T07:18:21;10.02;;;2.85;;
64351;SDS011;50680;52.626;-8.668;2022-09-24T07:20:51;7.97;;;2.70;;
64351;SDS011;50680;52.626;-8.668;2022-09-24T07:23:19;12.35;;;2.10;;
64351;SDS011;50680;52.626;-8.668;2022-09-24T07:25:47;13.25;;;2.15;;
64351;SDS011;50680;52.626;-8.668;2022-09-24T07:28:14;10.75;;;1.83;;
64351;SDS011;50680;52.626;-8.668;2022-09-24T07:30:42;11.23;;;2.05;;
64351;SDS011;50680;52.626;-8.668;2022-09-24T07:33:09;9.27;;;2.03;;
64351;SDS011;50680;52.626;-8.668;2022-09-24T07:35:36;10.73;;;1.63;;
64351;SDS011;50680;52.626;-8.668;2022-09-24T07:38:05;8.50;;;1.50;;
64351;SDS011;50680;52.626;-8.668;2022-09-24T07:40:34;7.75;;;1.58;;
64351;SDS011;50680;52.626;-8.668;2022-09-24T07:43:01;10.23;;;1.77;;
64351;SDS011;50680;52.626;-8.668;2022-09-24T07:45:27;15.40;;;2.00;;
64351;SDS011;50680;52.626;-8.668;2022-09-24T07:47:59;17.90;;;2.13;;
64351;SDS011;50680;52.626;-8.668;2022-09-24T07:50:28;15.07;;;2.08;;
64351;SDS011;50680;52.626;-8.668;2022-09-24T07:52:56;12.30;;;1.55;;
64351;SDS011;50680;52.626;-8.668;2022-09-24T07:55:23;14.82;;;2.03;;
64351;SDS011;50680;52.626;-8.668;2022-09-24T07:57:52;15.23;;;1.88;;
64351;SDS011;50680;52.626;-8.668;2022-09-24T08:00:21;12.57;;;1.95;;
64351;SDS011;50680;52.626;-8.668;2022-09-24T08:02:49;20.92;;;2.38;;
64351;SDS011;50680;52.626;-8.668;2022-09-24T08:05:19;9.45;;;2.47;;
64351;SDS011;50680;52.626;-8.668;2022-09-24T08:07:53;10.38;;;1.80;;
64351;SDS011;50680;52.626;-8.668;2022-09-24T08:10:21;12.73;;;2.25;;
64351;SDS011;50680;52.626;-8.668;2022-09-24T08:12:49;13.82;;;2.08;;
64351;SDS011;50680;52.626;-8.668;2022-09-24T08:15:16;17.08;;;2.42;;
64351;SDS011;50680;52.626;-8.668;2022-09-24T08:17:43;13.25;;;2.13;;
64351;SDS011;50680;52.626;-8.668;2022-09-24T08:20:10;11.20;;;2.10;;
64351;SDS011;50680;52.626;-8.668;2022-09-24T08:22:37;14.38;;;1.83;;
64351;SDS011;50680;52.626;-8.668;2022-09-24T08:25:04;15.75;;;2.40;;
64351;SDS011;50680;52.626;-8.668;2022-09-24T08:27:32;18.48;;;2.22;;
64351;SDS011;50680;52.626;-8.668;2022-09-24T08:30:03;16.25;;;2.40;;
64351;SDS011;50680;52.626;-8.668;2022-09-24T08:32:30;14.88;;;1.80;;
64351;SDS011;50680;52.626;-8.668;2022-09-24T08:34:57;11.00;;;2.13;;
64351;SDS011;50680;52.626;-8.668;2022-09-24T08:37:24;9.80;;;1.80;;
64351;SDS011;50680;52.626;-8.668;2022-09-24T08:39:53;15.75;;;1.73;;
64351;SDS011;50680;52.626;-8.668;2022-09-24T08:45:05;21.40;;;2.67;;
64351;SDS011;50680;52.626;-8.668;2022-09-24T08:47:58;10.10;;;1.15;;
64351;SDS011;50680;52.626;-8.668;2022-09-24T08:50:47;7.88;;;1.25;;
64351;SDS011;50680;52.626;-8.668;2022-09-24T08:56:08;8.60;;;1.48;;
64351;SDS011;50680;52.626;-8.668;2022-09-24T09:03:59;19.50;;;2.42;;
64351;SDS011;50680;52.626;-8.668;2022-09-24T09:09:13;12.88;;;1.70;;
64351;SDS011;50680;52.626;-8.668;2022-09-24T09:11:51;19.83;;;1.40;;
64351;SDS011;50680;52.626;-8.668;2022-09-24T09:14:38;10.82;;;1.52;;
64351;SDS011;50680;52.626;-8.668;2022-09-24T09:17:30;12.18;;;1.52;;
64351;SDS011;50680;52.626;-8.668;2022-09-24T09:19:58;13.30;;;1.35;;
64351;SDS011;50680;52.626;-8.668;2022-09-24T09:22:28;12.70;;;1.48;;
64351;SDS011;50680;52.626;-8.668;2022-09-24T09:25:22;8.98;;;1.55;;
64351;SDS011;50680;52.626;-8.668;2022-09-24T09:27:52;12.73;;;1.35;;
64351;SDS011;50680;52.626;-8.668;2022-09-24T09:30:26;11.52;;;1.50;;
64351;SDS011;50680;52.626;-8.668;2022-09-24T09:38:42;15.45;;;1.60;;
64351;SDS011;50680;52.626;-8.668;2022-09-24T09:43:40;12.65;;;2.25;;
64351;SDS011;50680;52.626;-8.668;2022-09-24T09:46:14;8.00;;;1.10;;
64351;SDS011;50680;52.626;-8.668;2022-09-24T09:49:07;10.75;;;1.65;;
64351;SDS011;50680;52.626;-8.668;2022-09-24T09:51:37;17.50;;;1.77;;
64351;SDS011;50680;52.626;-8.668;2022-09-24T09:54:07;10.80;;;2.20;;
64351;SDS011;50680;52.626;-8.668;2022-09-24T09:56:35;12.07;;;1.38;;
64351;SDS011;50680;52.626;-8.668;2022-09-24T10:01:39;11.43;;;1.30;;
64351;SDS011;50680;52.626;-8.668;2022-09-24T10:04:27;12.38;;;1.58;;
64351;SDS011;50680;52.626;-8.668;2022-09-24T10:07:08;14.20;;;1.48;;
64351;SDS011;50680;52.626;-8.668;2022-09-24T10:09:40;12.70;;;1.45;;
64351;SDS011;50680;52.626;-8.668;2022-09-24T10:12:14;11.02;;;1.63;;
64351;SDS011;50680;52.626;-8.668;2022-09-24T10:14:42;8.57;;;1.42;;
64351;SDS011;50680;52.626;-8.668;2022-09-24T10:17:13;16.10;;;1.33;;
64351;SDS011;50680;52.626;-8.668;2022-09-24T10:19:43;10.95;;;1.35;;
64351;SDS011;50680;52.626;-8.668;2022-09-24T10:22:15;9.40;;;2.00;;
64351;SDS011;50680;52.626;-8.668;2022-09-24T10:24:47;6.78;;;1.17;;
64351;SDS011;50680;52.626;-8.668;2022-09-24T10:27:18;16.58;;;1.67;;
64351;SDS011;50680;52.626;-8.668;2022-09-24T10:29:54;7.45;;;0.90;;
64351;SDS011;50680;52.626;-8.668;2022-09-24T10:32:41;13.88;;;1.48;;
64351;SDS011;50680;52.626;-8.668;2022-09-24T10:35:19;5.20;;;1.02;;
64351;SDS011;50680;52.626;-8.668;2022-09-24T10:37:49;7.60;;;1.10;;
64351;SDS011;50680;52.626;-8.668;2022-09-24T10:40:45;15.40;;;1.40;;
64351;SDS011;50680;52.626;-8.668;2022-09-24T10:43:16;17.77;;;1.95;;
64351;SDS011;50680;52.626;-8.668;2022-09-24T10:57:05;8.43;;;1.67;;
64351;SDS011;50680;52.626;-8.668;2022-09-24T11:05:20;7.50;;;1.08;;
64351;SDS011;50680;52.626;-8.668;2022-09-24T11:07:51;10.52;;;1.30;;
64351;SDS011;50680;52.626;-8.668;2022-09-24T11:18:46;7.03;;;0.90;;
64351;SDS011;50680;52.626;-8.668;2022-09-24T11:21:44;5.88;;;0.60;;
64351;SDS011;50680;52.626;-8.668;2022-09-24T11:30:25;5.72;;;0.98;;
64351;SDS011;50680;52.626;-8.668;2022-09-24T11:35:55;10.57;;;0.90;;
64351;SDS011;50680;52.626;-8.668;2022-09-24T11:47:01;2.55;;;0.65;;
64351;SDS011;50680;52.626;-8.668;2022-09-24T11:57:35;6.05;;;0.70;;
64351;SDS011;50680;52.626;-8.668;2022-09-24T12:00:16;6.28;;;0.82;;
64351;SDS011;50680;52.626;-8.668;2022-09-24T12:03:20;6.43;;;0.73;;
64351;SDS011;50680;52.626;-8.668;2022-09-24T12:06:00;5.90;;;0.70;;
64351;SDS011;50680;52.626;-8.668;2022-09-24T12:08:37;8.82;;;0.80;;
64351;SDS011;50680;52.626;-8.668;2022-09-24T12:11:12;9.07;;;0.85;;
64351;SDS011;50680;52.626;-8.668;2022-09-24T12:13:54;5.72;;;1.00;;
64351;SDS011;50680;52.626;-8.668;2022-09-24T12:16:29;5.03;;;0.65;;
64351;SDS011;50680;52.626;-8.668;2022-09-24T12:19:46;8.90;;;1.30;;
64351;SDS011;50680;52.626;-8.668;2022-09-24T12:22:11;13.95;;;2.05;;
64351;SDS011;50680;52.626;-8.668;2022-09-24T12:24:52;5.85;;;0.90;;
64351;SDS011;50680;52.626;-8.668;2022-09-24T12:27:29;9.32;;;0.88;;
64351;SDS011;50680;52.626;-8.668;2022-09-24T12:38:34;5.13;;;0.73;;
64351;SDS011;50680;52.626;-8.668;2022-09-24T12:41:17;6.13;;;0.85;;
64351;SDS011;50680;52.626;-8.668;2022-09-24T12:49:03;10.05;;;0.90;;
64351;SDS011;50680;52.626;-8.668;2022-09-24T12:51:42;6.32;;;0.80;;
64351;SDS011;50680;52.626;-8.668;2022-09-24T12:59:55;4.72;;;0.60;;
64351;SDS011;50680;52.626;-8.668;2022-09-24T13:02:25;4.35;;;0.90;;
64351;SDS011;50680;52.626;-8.668;2022-09-24T13:07:54;3.38;;;0.60;;
64351;SDS011;50680;52.626;-8.668;2022-09-24T13:13:35;5.00;;;0.73;;
64351;SDS011;50680;52.626;-8.668;2022-09-24T13:16:18;3.65;;;0.57;;
64351;SDS011;50680;52.626;-8.668;2022-09-24T13:18:53;5.45;;;0.88;;
64351;SDS011;50680;52.626;-8.668;2022-09-24T13:21:25;3.20;;;0.52;;
64351;SDS011;50680;52.626;-8.668;2022-09-24T13:23:54;2.05;;;0.30;;
64351;SDS011;50680;52.626;-8.668;2022-09-24T13:29:03;6.88;;;0.55;;
64351;SDS011;50680;52.626;-8.668;2022-09-24T13:31:44;0.98;;;0.40;;
64351;SDS011;50680;52.626;-8.668;2022-09-24T13:34:21;2.95;;;0.30;;
64351;SDS011;50680;52.626;-8.668;2022-09-24T13:39:32;2.83;;;0.70;;
64351;SDS011;50680;52.626;-8.668;2022-09-24T13:42:17;1.02;;;0.20;;
64351;SDS011;50680;52.626;-8.668;2022-09-24T13:45:12;2.33;;;0.45;;
64351;SDS011;50680;52.626;-8.668;2022-09-24T13:50:28;1.60;;;0.50;;
64351;SDS011;50680;52.626;-8.668;2022-09-24T13:55:31;5.45;;;0.65;;
64351;SDS011;50680;52.626;-8.668;2022-09-24T14:01:04;3.13;;;0.40;;
64351;SDS011;50680;52.626;-8.668;2022-09-24T14:03:38;5.07;;;0.57;;
64351;SDS011;50680;52.626;-8.668;2022-09-24T14:06:10;3.10;;;0.55;;
64351;SDS011;50680;52.626;-8.668;2022-09-24T14:08:44;4.03;;;0.85;;
64351;SDS011;50680;52.626;-8.668;2022-09-24T14:11:13;5.40;;;1.33;;
64351;SDS011;50680;52.626;-8.668;2022-09-24T14:13:45;2.97;;;0.75;;
64351;SDS011;50680;52.626;-8.668;2022-09-24T14:16:17;3.08;;;0.40;;
64351;SDS011;50680;52.626;-8.668;2022-09-24T14:18:46;2.10;;;0.93;;
64351;SDS011;50680;52.626;-8.668;2022-09-24T14:21:26;2.45;;;0.63;;
64351;SDS011;50680;52.626;-8.668;2022-09-24T14:24:04;0.85;;;0.40;;
64351;SDS011;50680;52.626;-8.668;2022-09-24T14:26:44;6.28;;;0.90;;
64351;SDS011;50680;52.626;-8.668;2022-09-24T14:29:42;6.55;;;0.75;;
64351;SDS011;50680;52.626;-8.668;2022-09-24T14:32:21;4.45;;;0.98;;
64351;SDS011;50680;52.626;-8.668;2022-09-24T14:34:56;3.42;;;0.68;;
64351;SDS011;50680;52.626;-8.668;2022-09-24T14:37:33;3.30;;;0.45;;
64351;SDS011;50680;52.626;-8.668;2022-09-24T14:40:22;3.20;;;0.70;;
64351;SDS011;50680;52.626;-8.668;2022-09-24T14:42:57;4.57;;;0.52;;
64351;SDS011;50680;52.626;-8.668;2022-09-24T14:45:29;1.35;;;0.40;;
64351;SDS011;50680;52.626;-8.668;2022-09-24T14:48:48;2.55;;;0.40;;
64351;SDS011;50680;52.626;-8.668;2022-09-24T14:50:54;5.78;;;1.10;;
64351;SDS011;50680;52.626;-8.668;2022-09-24T14:56:00;6.38;;;0.77;;
64351;SDS011;50680;52.626;-8.668;2022-09-24T14:58:43;4.55;;;0.90;;
64351;SDS011;50680;52.626;-8.668;2022-09-24T15:01:14;4.32;;;0.70;;
64351;SDS011;50680;52.626;-8.668;2022-09-24T15:03:46;4.82;;;0.40;;
64351;SDS011;50680;52.626;-8.668;2022-09-24T15:08:58;4.18;;;0.73;;
64351;SDS011;50680;52.626;-8.668;2022-09-24T15:11:43;5.07;;;0.60;;
64351;SDS011;50680;52.626;-8.668;2022-09-24T15:16:43;3.28;;;0.40;;
64351;SDS011;50680;52.626;-8.668;2022-09-24T15:21:46;4.40;;;0.85;;
64351;SDS011;50680;52.626;-8.668;2022-09-24T15:24:15;4.10;;;0.40;;
64351;SDS011;50680;52.626;-8.668;2022-09-24T15:26:44;6.03;;;0.70;;
64351;SDS011;50680;52.626;-8.668;2022-09-24T15:29:19;10.00;;;0.68;;
64351;SDS011;50680;52.626;-8.668;2022-09-24T15:31:50;3.55;;;0.60;;
64351;SDS011;50680;52.626;-8.668;2022-09-24T15:34:18;4.50;;;0.45;;
64351;SDS011;50680;52.626;-8.668;2022-09-24T15:36:46;3.38;;;0.55;;
64351;SDS011;50680;52.626;-8.668;2022-09-24T15:39:21;4.57;;;0.68;;
64351;SDS011;50680;52.626;-8.668;2022-09-24T15:41:50;5.55;;;0.60;;
64351;SDS011;50680;52.626;-8.668;2022-09-24T15:44:21;3.80;;;0.88;;
64351;SDS011;50680;52.626;-8.668;2022-09-24T15:46:56;4.47;;;0.60;;
64351;SDS011;50680;52.626;-8.668;2022-09-24T15:49:23;3.20;;;0.50;;
64351;SDS011;50680;52.626;-8.668;2022-09-24T15:51:55;2.30;;;0.60;;
64351;SDS011;50680;52.626;-8.668;2022-09-24T15:54:27;3.25;;;0.47;;
64351;SDS011;50680;52.626;-8.668;2022-09-24T15:56:54;4.60;;;0.50;;
64351;SDS011;50680;52.626;-8.668;2022-09-24T15:59:21;3.55;;;0.50;;
64351;SDS011;50680;52.626;-8.668;2022-09-24T16:01:50;3.47;;;0.50;;
64351;SDS011;50680;52.626;-8.668;2022-09-24T16:04:19;0.95;;;0.30;;
64351;SDS011;50680;52.626;-8.668;2022-09-24T16:06:46;1.33;;;0.50;;
64351;SDS011;50680;52.626;-8.668;2022-09-24T16:09:14;2.33;;;0.60;;
64351;SDS011;50680;52.626;-8.668;2022-09-24T16:11:41;6.18;;;0.85;;
64351;SDS011;50680;52.626;-8.668;2022-09-24T16:14:08;3.78;;;0.38;;
64351;SDS011;50680;52.626;-8.668;2022-09-24T16:16:38;2.47;;;1.30;;
64351;SDS011;50680;52.626;-8.668;2022-09-24T16:19:06;2.55;;;0.60;;
64351;SDS011;50680;52.626;-8.668;2022-09-24T16:21:34;1.42;;;0.32;;
64351;SDS011;50680;52.626;-8.668;2022-09-24T16:24:01;2.78;;;0.80;;
64351;SDS011;50680;52.626;-8.668;2022-09-24T16:26:28;1.52;;;0.40;;
64351;SDS011;50680;52.626;-8.668;2022-09-24T16:28:56;2.25;;;0.57;;
64351;SDS011;50680;52.626;-8.668;2022-09-24T16:31:23;3.30;;;0.70;;
64351;SDS011;50680;52.626;-8.668;2022-09-24T16:33:50;3.63;;;0.73;;
64351;SDS011;50680;52.626;-8.668;2022-09-24T16:36:17;7.65;;;0.73;;
64351;SDS011;50680;52.626;-8.668;2022-09-24T16:38:44;3.03;;;0.28;;
64351;SDS011;50680;52.626;-8.668;2022-09-24T16:41:11;1.50;;;0.25;;
64351;SDS011;50680;52.626;-8.668;2022-09-24T16:43:38;1.40;;;0.38;;
64351;SDS011;50680;52.626;-8.668;2022-09-24T16:46:06;3.72;;;0.50;;
64351;SDS011;50680;52.626;-8.668;2022-09-24T16:48:35;2.30;;;0.40;;
64351;SDS011;50680;52.626;-8.668;2022-09-24T16:51:03;1.00;;;0.40;;
64351;SDS011;50680;52.626;-8.668;2022-09-24T16:53:31;2.97;;;0.60;;
64351;SDS011;50680;52.626;-8.668;2022-09-24T16:58:35;1.95;;;0.30;;
64351;SDS011;50680;52.626;-8.668;2022-09-24T17:01:03;1.70;;;0.38;;
64351;SDS011;50680;52.626;-8.668;2022-09-24T17:03:35;4.80;;;0.50;;
64351;SDS011;50680;52.626;-8.668;2022-09-24T17:06:03;1.42;;;0.32;;
64351;SDS011;50680;52.626;-8.668;2022-09-24T17:08:30;3.45;;;0.80;;
64351;SDS011;50680;52.626;-8.668;2022-09-24T17:11:17;3.47;;;0.40;;
64351;SDS011;50680;52.626;-8.668;2022-09-24T17:13:44;1.48;;;0.50;;
64351;SDS011;50680;52.626;-8.668;2022-09-24T17:16:13;2.42;;;0.60;;
64351;SDS011;50680;52.626;-8.668;2022-09-24T17:18:40;1.55;;;0.50;;
64351;SDS011;50680;52.626;-8.668;2022-09-24T17:21:08;1.92;;;0.30;;
64351;SDS011;50680;52.626;-8.668;2022-09-24T17:23:37;2.00;;;0.60;;
64351;SDS011;50680;52.626;-8.668;2022-09-24T17:26:06;17.55;;;0.55;;
64351;SDS011;50680;52.626;-8.668;2022-09-24T17:28:37;5.88;;;0.50;;
64351;SDS011;50680;52.626;-8.668;2022-09-24T17:31:06;3.92;;;0.60;;